createdAt,value
2023-05-01T00:01:45.152Z,3.63
2023-05-01T00:04:13.128Z,3.25
2023-05-01T00:06:42.399Z,3.70
2023-05-01T00:09:10.620Z,4.03
2023-05-01T00:11:38.400Z,3.92
2023-05-01T00:14:06.351Z,4.05
2023-05-01T00:16:35.717Z,3.70
2023-05-01T00:19:04.965Z,4.07
2023-05-01T00:21:32.721Z,4.10
2023-05-01T00:24:01.901Z,3.70
2023-05-01T00:26:31.322Z,3.90
2023-05-01T00:28:59.414Z,3.95
2023-05-01T00:31:27.215Z,4.20
2023-05-01T00:33:55.193Z,4.10
2023-05-01T00:36:23.074Z,3.95
2023-05-01T00:38:50.840Z,4.47
2023-05-01T00:41:19.947Z,4.82
2023-05-01T00:43:47.791Z,4.07
2023-05-01T00:46:15.758Z,4.13
2023-05-01T00:48:44.505Z,4.15
2023-05-01T00:51:13.946Z,3.80
2023-05-01T00:53:42.120Z,3.78
2023-05-01T00:56:11.976Z,4.45
2023-05-01T00:58:42.077Z,4.13
2023-05-01T01:01:10.041Z,4.03
2023-05-01T01:03:38.100Z,4.13
2023-05-01T01:06:10.498Z,3.58
2023-05-01T01:08:43.117Z,4.35
2023-05-01T01:11:19.754Z,3.88
2023-05-01T01:13:56.953Z,4.13
2023-05-01T01:16:33.079Z,4.07
2023-05-01T01:19:08.246Z,4.30
2023-05-01T01:21:39.613Z,3.80
2023-05-01T01:24:36.993Z,4.15
2023-05-01T01:27:20.165Z,3.50
2023-05-01T01:29:58.012Z,3.67
2023-05-01T01:33:02.185Z,4.10
2023-05-01T01:35:33.365Z,4.05
2023-05-01T01:38:06.837Z,3.88
2023-05-01T01:43:08.050Z,4.05
2023-05-01T01:45:40.917Z,4.00
2023-05-01T01:48:12.571Z,3.70
2023-05-01T01:50:44.978Z,4.28
2023-05-01T01:53:17.343Z,4.32
2023-05-01T01:55:47.913Z,3.50
2023-05-01T01:58:17.743Z,4.00
2023-05-01T02:00:46.578Z,4.05
2023-05-01T02:03:15.905Z,3.55
2023-05-01T02:05:47.060Z,3.70
2023-05-01T02:08:17.029Z,3.83
2023-05-01T02:10:46.241Z,4.15
2023-05-01T02:13:18.295Z,4.55
2023-05-01T02:15:47.437Z,4.35
2023-05-01T02:18:17.001Z,4.10
2023-05-01T02:20:46.636Z,4.25
2023-05-01T02:23:14.914Z,4.38
2023-05-01T02:25:44.546Z,4.45
2023-05-01T02:28:14.719Z,4.60
2023-05-01T02:30:42.595Z,4.40
2023-05-01T02:33:10.936Z,4.65
2023-05-01T02:35:42.741Z,5.05
2023-05-01T02:38:12.773Z,4.35
2023-05-01T02:40:41.285Z,4.60
2023-05-01T02:43:13.249Z,3.88
2023-05-01T02:45:42.181Z,4.95
2023-05-01T02:48:14.384Z,4.20
2023-05-01T02:50:45.328Z,4.55
2023-05-01T02:53:15.638Z,5.15
2023-05-01T02:55:52.377Z,4.25
2023-05-01T02:58:20.972Z,4.45
2023-05-01T03:00:50.463Z,4.57
2023-05-01T03:03:20.195Z,4.50
2023-05-01T03:05:48.180Z,4.70
2023-05-01T03:08:17.334Z,5.15
2023-05-01T03:10:45.129Z,5.13
2023-05-01T03:13:12.993Z,4.60
2023-05-01T03:15:41.226Z,4.82
2023-05-01T03:18:09.381Z,5.00
2023-05-01T03:20:37.303Z,5.28
2023-05-01T03:23:05.657Z,4.93
2023-05-01T03:25:35.595Z,4.47
2023-05-01T03:28:03.405Z,4.85
2023-05-01T03:30:31.647Z,5.40
2023-05-01T03:32:59.516Z,5.88
2023-05-01T03:35:31.803Z,4.70
2023-05-01T03:38:00.353Z,5.35
2023-05-01T03:40:52.304Z,4.80
2023-05-01T03:43:38.874Z,5.00
2023-05-01T03:46:12.822Z,5.40
2023-05-01T03:48:40.599Z,4.63
2023-05-01T03:51:09.321Z,5.32
2023-05-01T03:53:38.042Z,4.70
2023-05-01T03:56:09.241Z,5.63
2023-05-01T03:58:37.219Z,5.10
2023-05-01T04:01:06.055Z,5.43
2023-05-01T04:03:36.526Z,5.63
2023-05-01T04:06:04.697Z,6.05
2023-05-01T04:08:32.523Z,5.15
2023-05-01T04:11:01.133Z,5.40
2023-05-01T04:13:30.214Z,4.95
2023-05-01T04:15:59.437Z,5.35
2023-05-01T04:18:28.579Z,5.28
2023-05-01T04:21:00.116Z,5.65
2023-05-01T04:23:28.001Z,5.80
2023-05-01T04:25:58.916Z,5.45
2023-05-01T04:28:27.820Z,6.20
2023-05-01T04:30:57.019Z,5.63
2023-05-01T04:33:24.988Z,6.35
2023-05-01T04:35:52.949Z,5.43
2023-05-01T04:38:21.079Z,4.88
2023-05-01T04:40:49.748Z,5.65
2023-05-01T04:43:17.700Z,5.85
2023-05-01T04:45:45.585Z,5.90
2023-05-01T04:48:14.756Z,5.93
2023-05-01T04:50:42.674Z,5.50
2023-05-01T04:53:10.499Z,4.97
2023-05-01T04:55:38.266Z,6.18
2023-05-01T04:58:14.343Z,5.75
2023-05-01T05:00:42.857Z,5.13
2023-05-01T05:03:18.962Z,5.63
2023-05-01T05:05:47.051Z,5.75
2023-05-01T05:08:14.995Z,5.80
2023-05-01T05:10:47.994Z,5.25
2023-05-01T05:13:25.769Z,6.60
2023-05-01T05:16:01.246Z,5.95
2023-05-01T05:18:30.877Z,6.50
2023-05-01T05:20:59.653Z,5.88
2023-05-01T05:23:27.787Z,6.28
2023-05-01T05:25:56.452Z,6.38
2023-05-01T05:28:24.488Z,7.70
2023-05-01T05:30:52.438Z,5.57
2023-05-01T05:33:22.430Z,5.75
2023-05-01T05:35:51.716Z,5.75
2023-05-01T05:38:21.815Z,6.13
2023-05-01T05:40:54.207Z,5.68
2023-05-01T05:43:22.486Z,5.95
2023-05-01T05:45:50.458Z,5.32
2023-05-01T05:48:18.557Z,5.88
2023-05-01T05:50:46.603Z,5.65
2023-05-01T05:53:15.802Z,6.00
2023-05-01T05:55:45.365Z,5.85
2023-05-01T05:58:14.529Z,5.68
2023-05-01T06:00:43.164Z,6.00
2023-05-01T06:03:11.387Z,6.15
2023-05-01T06:05:39.472Z,5.93
2023-05-01T06:08:07.378Z,5.85
2023-05-01T06:10:36.677Z,5.53
2023-05-01T06:13:14.024Z,5.68
2023-05-01T06:15:46.842Z,7.47
2023-05-01T06:18:14.783Z,6.65
2023-05-01T06:20:42.762Z,6.28
2023-05-01T06:23:10.692Z,6.20
2023-05-01T06:25:49.438Z,6.20
2023-05-01T06:28:17.265Z,6.25
2023-05-01T06:30:45.181Z,5.90
2023-05-01T06:33:13.618Z,6.43
2023-05-01T06:35:43.837Z,5.82
2023-05-01T06:38:11.706Z,6.75
2023-05-01T06:40:40.488Z,6.40
2023-05-01T06:43:09.928Z,7.10
2023-05-01T06:45:39.746Z,7.13
2023-05-01T06:48:07.935Z,6.95
2023-05-01T06:50:36.997Z,6.57
2023-05-01T06:53:04.880Z,6.90
2023-05-01T06:55:35.214Z,6.55
2023-05-01T06:58:15.991Z,6.63
2023-05-01T07:00:45.758Z,6.47
2023-05-01T07:03:14.011Z,6.30
2023-05-01T07:05:41.846Z,6.47
2023-05-01T07:08:10.471Z,5.72
2023-05-01T07:10:40.453Z,6.15
2023-05-01T07:13:10.111Z,5.97
2023-05-01T07:15:38.008Z,6.28
2023-05-01T07:18:07.299Z,6.80
2023-05-01T07:20:35.531Z,6.35
2023-05-01T07:23:07.344Z,6.68
2023-05-01T07:25:37.696Z,6.03
2023-05-01T07:28:05.760Z,6.78
2023-05-01T07:30:33.557Z,7.07
2023-05-01T07:33:01.665Z,7.82
2023-05-01T07:35:31.086Z,6.28
2023-05-01T07:37:58.841Z,5.82
2023-05-01T07:40:26.839Z,6.90
2023-05-01T07:42:54.779Z,5.47
2023-05-01T07:45:22.644Z,6.68
2023-05-01T07:47:50.719Z,6.03
2023-05-01T07:50:18.576Z,6.20
2023-05-01T07:52:47.681Z,5.70
2023-05-01T07:55:16.006Z,6.80
2023-05-01T07:57:43.902Z,5.75
2023-05-01T08:00:12.915Z,7.45
2023-05-01T08:02:43.935Z,5.60
2023-05-01T08:05:11.775Z,6.45
2023-05-01T08:07:39.651Z,6.28
2023-05-01T08:10:10.007Z,6.07
2023-05-01T08:12:37.802Z,5.28
2023-05-01T08:15:06.559Z,4.22
2023-05-01T08:17:35.851Z,4.70
2023-05-01T08:20:03.770Z,3.60
2023-05-01T08:22:31.917Z,3.40
2023-05-01T08:24:59.739Z,4.03
2023-05-01T08:27:29.077Z,3.65
2023-05-01T08:29:57.048Z,5.43
2023-05-01T08:32:25.036Z,4.70
2023-05-01T08:34:53.356Z,4.30
2023-05-01T08:37:21.316Z,3.92
2023-05-01T08:39:49.259Z,3.70
2023-05-01T08:42:17.560Z,4.13
2023-05-01T08:44:49.016Z,3.60
2023-05-01T08:47:18.246Z,4.20
2023-05-01T08:49:47.246Z,3.15
2023-05-01T08:52:16.161Z,3.28
2023-05-01T08:54:46.848Z,3.88
2023-05-01T08:57:14.721Z,3.92
2023-05-01T08:59:42.782Z,3.70
2023-05-01T09:02:12.193Z,3.90
2023-05-01T09:04:41.796Z,3.30
2023-05-01T09:07:10.792Z,3.35
2023-05-01T09:09:38.688Z,3.47
2023-05-01T09:12:19.053Z,3.78
2023-05-01T09:14:47.019Z,3.35
2023-05-01T09:17:16.599Z,3.50
2023-05-01T09:19:45.208Z,3.45
2023-05-01T09:22:13.250Z,3.53
2023-05-01T09:24:41.230Z,3.22
2023-05-01T09:27:09.631Z,3.55
2023-05-01T09:29:41.506Z,2.97
2023-05-01T09:32:19.231Z,2.88
2023-05-01T09:34:47.737Z,3.15
2023-05-01T09:37:28.189Z,2.88
2023-05-01T09:40:07.620Z,2.95
2023-05-01T09:42:38.346Z,2.72
2023-05-01T09:45:08.717Z,2.80
2023-05-01T09:47:38.232Z,2.60
2023-05-01T09:50:06.867Z,2.90
2023-05-01T09:52:34.710Z,3.00
2023-05-01T09:55:16.357Z,2.88
2023-05-01T09:57:45.302Z,2.72
2023-05-01T10:00:15.650Z,2.33
2023-05-01T10:02:46.613Z,2.65
2023-05-01T10:05:15.431Z,2.92
2023-05-01T10:07:58.367Z,2.53
2023-05-01T10:10:26.944Z,2.20
2023-05-01T10:12:55.577Z,1.90
2023-05-01T10:15:26.597Z,1.65
2023-05-01T10:17:56.853Z,1.40
2023-05-01T10:20:25.964Z,1.80
2023-05-01T10:22:56.031Z,1.35
2023-05-01T10:25:29.121Z,1.67
2023-05-01T10:27:57.545Z,1.85
2023-05-01T10:30:27.104Z,2.33
2023-05-01T10:32:56.715Z,2.30
2023-05-01T10:35:28.818Z,2.22
2023-05-01T10:38:01.947Z,2.50
2023-05-01T10:40:46.121Z,2.45
2023-05-01T10:43:19.715Z,3.03
2023-05-01T10:48:59.498Z,2.53
2023-05-01T10:51:28.640Z,2.55
2023-05-01T10:54:25.638Z,3.50
2023-05-01T10:56:54.519Z,3.00
2023-05-01T10:59:22.489Z,2.85
2023-05-01T11:01:52.729Z,2.72
2023-05-01T11:04:51.432Z,3.10
2023-05-01T11:07:20.036Z,3.05
2023-05-01T11:09:51.273Z,2.40
2023-05-01T11:12:51.064Z,2.70
2023-05-01T11:15:29.708Z,2.70
2023-05-01T11:17:58.599Z,2.50
2023-05-01T11:20:57.896Z,3.13
2023-05-01T11:23:25.980Z,2.50
2023-05-01T11:26:05.126Z,3.30
2023-05-01T11:28:33.544Z,2.47
2023-05-01T11:31:01.717Z,2.55
2023-05-01T11:33:29.806Z,2.78
2023-05-01T11:36:01.232Z,2.55
2023-05-01T11:38:29.511Z,3.03
2023-05-01T11:41:03.909Z,2.80
2023-05-01T11:43:32.135Z,2.28
2023-05-01T11:46:04.234Z,2.40
2023-05-01T11:48:32.513Z,2.15
2023-05-01T11:51:01.696Z,2.15
2023-05-01T11:53:30.351Z,2.10
2023-05-01T11:55:59.512Z,1.88
2023-05-01T11:58:36.387Z,1.60
2023-05-01T12:01:04.899Z,1.83
2023-05-01T12:03:42.663Z,1.95
2023-05-01T12:06:14.053Z,1.70
2023-05-01T12:08:50.401Z,1.60
2023-05-01T12:11:20.580Z,1.58
2023-05-01T12:13:50.251Z,2.30
2023-05-01T12:16:18.399Z,1.70
2023-05-01T12:18:47.026Z,1.50
2023-05-01T12:21:18.807Z,1.63
2023-05-01T12:23:46.822Z,1.40
2023-05-01T12:26:19.077Z,1.50
2023-05-01T12:28:58.137Z,1.70
2023-05-01T12:31:27.032Z,1.70
2023-05-01T12:33:56.735Z,1.80
2023-05-01T12:36:28.246Z,1.75
2023-05-01T12:39:00.668Z,1.40
2023-05-01T12:41:36.969Z,1.95
2023-05-01T12:44:16.016Z,1.50
2023-05-01T12:46:44.309Z,1.30
2023-05-01T12:49:17.831Z,1.60
2023-05-01T12:51:49.479Z,1.20
2023-05-01T12:54:21.882Z,1.63
2023-05-01T12:56:50.156Z,1.55
2023-05-01T12:59:22.572Z,1.80
2023-05-01T13:01:57.807Z,1.70
2023-05-01T13:04:26.420Z,1.40
2023-05-01T13:06:56.912Z,1.67
2023-05-01T13:09:27.099Z,1.90
2023-05-01T13:12:02.627Z,1.83
2023-05-01T13:14:31.620Z,1.25
2023-05-01T13:16:59.442Z,1.75
2023-05-01T13:19:29.064Z,1.48
2023-05-01T13:21:58.615Z,1.63
2023-05-01T13:24:36.883Z,1.85
2023-05-01T13:27:05.732Z,2.83
2023-05-01T13:29:33.813Z,3.00
2023-05-01T13:32:02.243Z,2.80
2023-05-01T13:34:31.783Z,2.88
2023-05-01T13:37:02.741Z,2.88
2023-05-01T13:39:30.636Z,2.85
2023-05-01T13:41:58.468Z,2.78
2023-05-01T13:44:28.234Z,2.70
2023-05-01T13:46:56.421Z,2.47
2023-05-01T13:49:25.672Z,2.20
2023-05-01T13:51:55.605Z,2.45
2023-05-01T13:54:24.754Z,2.00
2023-05-01T13:56:53.042Z,2.65
2023-05-01T13:59:20.878Z,2.15
2023-05-01T14:01:48.845Z,2.47
2023-05-01T14:04:20.861Z,2.30
2023-05-01T14:06:49.201Z,2.13
2023-05-01T14:09:19.095Z,2.28
2023-05-01T14:11:49.185Z,2.17
2023-05-01T14:14:18.591Z,2.13
2023-05-01T14:16:52.136Z,2.13
2023-05-01T14:21:48.885Z,2.22
2023-05-01T14:24:18.204Z,1.73
2023-05-01T14:26:49.335Z,2.15
2023-05-01T14:29:24.035Z,2.22
2023-05-01T14:31:52.537Z,2.03
2023-05-01T14:34:21.441Z,2.20
2023-05-01T14:36:49.327Z,2.20
2023-05-01T14:39:17.308Z,2.10
2023-05-01T14:41:45.503Z,2.22
2023-05-01T14:44:16.628Z,2.13
2023-05-01T14:46:48.674Z,1.88
2023-05-01T14:49:21.166Z,2.25
2023-05-01T14:51:49.795Z,2.90
2023-05-01T14:54:17.835Z,2.38
2023-05-01T14:56:47.226Z,2.78
2023-05-01T14:59:17.290Z,3.00
2023-05-01T15:01:45.147Z,3.70
2023-05-01T15:04:13.159Z,3.42
2023-05-01T15:06:41.026Z,4.18
2023-05-01T15:09:08.942Z,4.32
2023-05-01T15:11:36.708Z,4.53
2023-05-01T15:14:04.747Z,5.15
2023-05-01T15:16:33.998Z,5.90
2023-05-01T15:19:01.833Z,5.18
2023-05-01T15:21:29.691Z,5.57
2023-05-01T15:23:57.838Z,6.22
2023-05-01T15:26:25.580Z,6.50
2023-05-01T15:28:53.882Z,5.55
2023-05-01T15:31:22.775Z,6.57
2023-05-01T15:33:51.984Z,6.53
2023-05-01T15:36:19.684Z,7.30
2023-05-01T15:38:48.184Z,8.13
2023-05-01T15:41:18.721Z,8.95
2023-05-01T15:43:46.958Z,8.25
2023-05-01T15:46:16.144Z,8.80
2023-05-01T15:48:43.985Z,8.00
2023-05-01T15:51:13.458Z,8.10
2023-05-01T15:53:41.192Z,9.00
2023-05-01T15:56:09.719Z,7.90
2023-05-01T15:58:37.521Z,7.88
2023-05-01T16:01:05.353Z,9.00
2023-05-01T16:03:33.259Z,8.95
2023-05-01T16:06:01.180Z,8.77
2023-05-01T16:08:32.182Z,9.30
2023-05-01T16:10:59.929Z,8.30
2023-05-01T16:13:27.775Z,8.57
2023-05-01T16:15:55.560Z,9.27
2023-05-01T16:18:26.148Z,8.18
2023-05-01T16:20:55.446Z,7.95
2023-05-01T16:23:25.896Z,8.60
2023-05-01T16:25:55.033Z,8.30
2023-05-01T16:28:22.857Z,9.00
2023-05-01T16:30:50.846Z,8.00
2023-05-01T16:33:20.558Z,8.02
2023-05-01T16:35:49.815Z,8.98
2023-05-01T16:38:18.608Z,8.25
2023-05-01T16:40:48.223Z,9.15
2023-05-01T16:43:17.889Z,8.30
2023-05-01T16:45:46.900Z,8.32
2023-05-01T16:48:21.679Z,8.95
2023-05-01T16:50:49.609Z,7.93
2023-05-01T16:53:17.916Z,7.82
2023-05-01T16:55:45.800Z,8.40
2023-05-01T16:58:13.509Z,9.73
2023-05-01T17:00:43.257Z,9.98
2023-05-01T17:03:11.295Z,9.60
2023-05-01T17:05:39.244Z,11.40
2023-05-01T17:08:06.969Z,10.80
2023-05-01T17:10:35.077Z,11.13
2023-05-01T17:13:03.027Z,11.65
2023-05-01T17:15:30.747Z,14.32
2023-05-01T17:17:59.960Z,12.88
2023-05-01T17:20:28.474Z,13.70
2023-05-01T17:22:56.586Z,13.40
2023-05-01T17:25:24.368Z,15.10
2023-05-01T17:27:52.078Z,14.35
2023-05-01T17:30:19.856Z,14.30
2023-05-01T17:32:49.045Z,15.68
2023-05-01T17:35:18.684Z,15.75
2023-05-01T17:37:46.587Z,16.08
2023-05-01T17:40:14.625Z,16.45
2023-05-01T17:42:42.445Z,17.17
2023-05-01T17:45:11.124Z,16.85
2023-05-01T17:47:42.691Z,16.70
2023-05-01T17:50:12.919Z,17.80
2023-05-01T17:52:44.287Z,15.88
2023-05-01T17:55:12.312Z,15.77
2023-05-01T17:57:40.350Z,13.38
2023-05-01T18:00:09.577Z,13.57
2023-05-01T18:02:44.500Z,13.02
2023-05-01T18:05:12.875Z,10.93
2023-05-01T18:07:42.175Z,11.43
2023-05-01T18:10:10.974Z,11.23
2023-05-01T18:12:38.749Z,9.82
2023-05-01T18:15:07.068Z,9.30
2023-05-01T18:17:35.046Z,10.07
2023-05-01T18:20:02.939Z,10.07
2023-05-01T18:22:30.917Z,9.15
2023-05-01T18:25:00.314Z,9.02
2023-05-01T18:27:28.087Z,9.65
2023-05-01T18:29:56.405Z,10.25
2023-05-01T18:32:32.960Z,11.15
2023-05-01T18:35:08.057Z,11.90
2023-05-01T18:37:35.815Z,10.90
2023-05-01T18:40:05.704Z,12.20
2023-05-01T18:42:33.568Z,11.63
2023-05-01T18:45:01.352Z,10.60
2023-05-01T18:47:29.306Z,11.48
2023-05-01T18:49:57.443Z,11.70
2023-05-01T18:52:25.522Z,12.20
2023-05-01T18:54:53.413Z,12.50
2023-05-01T18:57:22.668Z,12.25
2023-05-01T18:59:50.597Z,11.95
2023-05-01T19:02:18.511Z,13.55
2023-05-01T19:07:17.112Z,12.95
2023-05-01T19:09:45.014Z,13.63
2023-05-01T19:12:12.660Z,13.05
2023-05-01T19:14:42.029Z,12.57
2023-05-01T19:17:09.891Z,13.38
2023-05-01T19:19:37.735Z,12.80
2023-05-01T19:22:05.897Z,13.13
2023-05-01T19:24:33.772Z,13.68
2023-05-01T19:27:03.442Z,12.90
2023-05-01T19:29:32.768Z,13.20
2023-05-01T19:32:01.936Z,15.25
2023-05-01T19:34:30.060Z,16.27
2023-05-01T19:37:00.135Z,18.58
2023-05-01T19:39:28.917Z,18.10
2023-05-01T19:41:57.036Z,20.42
2023-05-01T19:44:24.909Z,22.02
2023-05-01T19:46:53.070Z,22.73
2023-05-01T19:49:24.849Z,23.67
2023-05-01T19:51:53.476Z,23.95
2023-05-01T19:54:22.297Z,24.75
2023-05-01T19:56:51.639Z,24.25
2023-05-01T19:59:19.620Z,24.75
2023-05-01T20:01:47.580Z,26.08
2023-05-01T20:04:15.618Z,23.92
2023-05-01T20:06:45.291Z,24.50
2023-05-01T20:09:13.190Z,23.15
2023-05-01T20:11:41.296Z,24.00
2023-05-01T20:14:09.188Z,22.65
2023-05-01T20:16:36.964Z,21.67
2023-05-01T20:19:04.788Z,23.63
2023-05-01T20:21:32.638Z,24.77
2023-05-01T20:24:01.700Z,22.92
2023-05-01T20:26:29.543Z,23.00
2023-05-01T20:28:57.749Z,23.60
2023-05-01T20:31:25.704Z,22.23
2023-05-01T20:33:53.641Z,22.77
2023-05-01T20:36:22.016Z,22.05
2023-05-01T20:38:53.175Z,23.05
2023-05-01T20:41:23.736Z,23.52
2023-05-01T20:43:51.627Z,23.33
2023-05-01T20:46:19.781Z,24.38
2023-05-01T20:48:47.561Z,23.15
2023-05-01T20:51:15.428Z,23.60
2023-05-01T20:53:43.194Z,24.70
2023-05-01T20:56:10.869Z,25.38
2023-05-01T20:58:39.880Z,22.40
2023-05-01T21:01:07.997Z,24.40
2023-05-01T21:03:35.991Z,24.67
2023-05-01T21:06:03.893Z,23.98
2023-05-01T21:08:31.832Z,23.80
2023-05-01T21:10:59.574Z,24.73
2023-05-01T21:13:27.869Z,25.63
2023-05-01T21:15:57.395Z,25.38
2023-05-01T21:18:25.189Z,22.13
2023-05-01T21:20:52.982Z,22.40
2023-05-01T21:23:20.697Z,21.83
2023-05-01T21:25:48.553Z,19.50
2023-05-01T21:28:16.349Z,17.20
2023-05-01T21:30:44.137Z,15.95
2023-05-01T21:33:17.520Z,14.77
2023-05-01T21:35:47.492Z,14.65
2023-05-01T21:38:15.811Z,13.52
2023-05-01T21:40:46.172Z,13.57
2023-05-01T21:43:14.212Z,14.88
2023-05-01T21:45:45.558Z,13.43
2023-05-01T21:48:16.991Z,13.57
2023-05-01T21:50:44.740Z,13.35
2023-05-01T21:53:12.477Z,13.73
2023-05-01T21:55:40.247Z,12.00
2023-05-01T21:58:07.997Z,14.27
2023-05-01T22:00:35.886Z,14.15
2023-05-01T22:03:08.664Z,15.18
2023-05-01T22:05:40.839Z,14.55
2023-05-01T22:08:08.713Z,15.13
2023-05-01T22:10:37.241Z,14.70
2023-05-01T22:13:06.625Z,15.82
2023-05-01T22:15:34.311Z,16.33
2023-05-01T22:18:02.090Z,16.88
2023-05-01T22:20:29.852Z,16.40
2023-05-01T22:22:59.231Z,15.20
2023-05-01T22:25:26.949Z,14.90
2023-05-01T22:27:54.646Z,14.35
2023-05-01T22:30:22.521Z,12.85
2023-05-01T22:32:50.556Z,12.02
2023-05-01T22:35:18.690Z,10.57
2023-05-01T22:37:46.459Z,9.50
2023-05-01T22:40:15.695Z,9.80
2023-05-01T22:42:43.533Z,8.70
2023-05-01T22:45:11.493Z,9.30
2023-05-01T22:47:39.329Z,10.38
2023-05-01T22:50:09.631Z,9.70
2023-05-01T22:52:37.484Z,10.23
2023-05-01T22:55:06.173Z,10.75
2023-05-01T22:57:35.217Z,11.48
2023-05-01T23:00:03.032Z,11.35
2023-05-01T23:02:30.964Z,10.80
2023-05-01T23:04:58.758Z,11.10
2023-05-01T23:07:27.008Z,10.18
2023-05-01T23:09:56.308Z,9.57
2023-05-01T23:12:25.847Z,8.32
2023-05-01T23:14:55.989Z,8.15
2023-05-01T23:17:23.923Z,6.28
2023-05-01T23:19:51.786Z,5.63
2023-05-01T23:22:20.252Z,5.53
2023-05-01T23:24:49.663Z,5.55
2023-05-01T23:27:19.332Z,5.25
2023-05-01T23:29:55.094Z,5.95
2023-05-01T23:32:29.324Z,6.47
2023-05-01T23:35:03.614Z,6.40
2023-05-01T23:37:31.401Z,6.55
2023-05-01T23:40:01.965Z,5.93
2023-05-01T23:42:30.077Z,4.88
2023-05-01T23:44:58.410Z,5.50
2023-05-01T23:47:28.140Z,4.93
2023-05-01T23:49:56.282Z,5.10
2023-05-01T23:52:23.976Z,4.03
2023-05-01T23:54:51.911Z,4.35
2023-05-01T23:57:19.661Z,3.67
2023-05-01T23:59:47.397Z,3.50
